Idalia, Colorado
Current Conditions -  °F | °C
As of 9:15 PM on Thursday 27 Nov 2014 (Local Time) from KSYF Reporting Station
Clear Clear  
Wind Chill: 34°   Ceiling: Unl
Heat Index: 40°   Visibility: 10mi
Dew Point: 26°   Wind: 8mph
Humidity: 57%   Direction: 240°WSW
Pressure: 30.03"   Gusts: NA
Location:  39.7°N, 102.29°W
Report Text: KSYF 280415Z AUTO 24007KT 10SM CLR 04/M04 A3003 RMK AO2 T00421036
Loading
Personal Weather Stations






























Interactive Weather Map New forecast layout! Learn more

10-Day Weather Forecast

Advertisements
Track Severe Weather on mobile